createdAt,value
2019-03-01T00:01:26.899Z,60.50
2019-03-01T00:04:11.752Z,64.25
2019-03-01T00:06:56.526Z,65.03
2019-03-01T00:09:50.699Z,64.15
2019-03-01T00:12:29.518Z,69.42
2019-03-01T00:15:25.038Z,68.07
2019-03-01T00:18:25.269Z,68.75
2019-03-01T00:21:20.779Z,69.82
2019-03-01T00:24:11.589Z,69.00
2019-03-01T00:26:53.377Z,68.45
2019-03-01T00:29:50.226Z,76.17
2019-03-01T00:32:47.183Z,70.57
2019-03-01T00:35:42.031Z,63.23
2019-03-01T00:38:21.012Z,64.05
2019-03-01T00:41:21.122Z,64.80
2019-03-01T00:44:18.082Z,66.15
2019-03-01T00:46:53.934Z,65.35
2019-03-01T00:49:31.319Z,66.30
2019-03-01T00:52:08.002Z,66.95
2019-03-01T00:54:43.783Z,64.72
2019-03-01T00:57:19.595Z,64.05
2019-03-01T00:59:55.450Z,65.40
2019-03-01T01:02:31.516Z,65.95
2019-03-01T01:05:07.558Z,66.60
2019-03-01T01:07:43.311Z,67.53
2019-03-01T01:10:19.174Z,67.10
2019-03-01T01:12:55.028Z,67.72
2019-03-01T01:15:30.876Z,65.42
2019-03-01T01:18:40.540Z,66.25
2019-03-01T01:21:37.983Z,74.90
2019-03-01T01:24:13.834Z,66.30
2019-03-01T01:26:49.694Z,68.92
2019-03-01T01:29:25.583Z,66.87
2019-03-01T01:32:01.448Z,66.65
2019-03-01T01:34:37.563Z,66.22
2019-03-01T01:37:13.830Z,65.70
2019-03-01T01:39:49.684Z,66.72
2019-03-01T01:42:25.531Z,60.80
2019-03-01T01:45:01.380Z,59.85
2019-03-01T01:47:37.244Z,62.70
2019-03-01T01:50:13.308Z,63.13
2019-03-01T01:52:49.153Z,59.95
2019-03-01T01:55:25.005Z,60.67
2019-03-01T01:58:00.863Z,59.45
2019-03-01T02:00:36.719Z,58.38
2019-03-01T02:03:13.486Z,58.92
2019-03-01T02:05:49.353Z,57.33
2019-03-01T02:08:25.197Z,56.40
2019-03-01T02:11:01.057Z,58.08
2019-03-01T02:13:38.077Z,59.23
2019-03-01T02:16:13.987Z,59.30
2019-03-01T02:18:57.435Z,61.20
2019-03-01T02:21:27.443Z,64.60
2019-03-01T02:24:03.302Z,66.55
2019-03-01T02:26:39.150Z,60.48
2019-03-01T02:29:15.009Z,61.33
2019-03-01T02:31:52.978Z,60.48
2019-03-01T02:34:28.866Z,59.85
2019-03-01T02:37:06.453Z,60.28
2019-03-01T02:39:42.304Z,59.48
2019-03-01T02:42:18.152Z,57.62
2019-03-01T02:44:54.025Z,55.52
2019-03-01T02:47:29.864Z,55.90
2019-03-01T02:50:08.203Z,56.55
2019-03-01T02:52:44.044Z,54.20
2019-03-01T02:55:23.112Z,55.38
2019-03-01T02:57:59.026Z,55.30
2019-03-01T03:00:35.081Z,55.20
2019-03-01T03:03:10.930Z,55.75
2019-03-01T03:06:03.586Z,54.40
2019-03-01T03:08:39.553Z,55.80
2019-03-01T03:11:15.394Z,55.25
2019-03-01T03:13:51.249Z,54.27
2019-03-01T03:16:26.988Z,55.58
2019-03-01T03:19:02.854Z,55.98
2019-03-01T03:21:38.712Z,54.03
2019-03-01T03:24:14.558Z,54.58
2019-03-01T03:26:50.425Z,56.58
2019-03-01T03:29:26.274Z,56.45
2019-03-01T03:32:02.117Z,56.98
2019-03-01T03:34:37.983Z,57.15
2019-03-01T03:37:13.836Z,57.03
2019-03-01T03:39:49.696Z,57.88
2019-03-01T03:42:25.545Z,61.77
2019-03-01T03:45:01.694Z,56.10
2019-03-01T03:47:38.682Z,57.83
2019-03-01T03:50:15.456Z,58.27
2019-03-01T03:52:51.315Z,58.70
2019-03-01T03:55:27.476Z,58.17
2019-03-01T03:58:03.422Z,56.37
2019-03-01T04:00:39.284Z,56.37
2019-03-01T04:03:15.181Z,57.90
2019-03-01T04:05:50.949Z,57.80
2019-03-01T04:08:26.846Z,58.48
2019-03-01T04:11:02.707Z,57.00
2019-03-01T04:13:38.542Z,59.45
2019-03-01T04:16:14.319Z,57.08
2019-03-01T04:18:50.159Z,58.02
2019-03-01T04:21:26.006Z,57.03
2019-03-01T04:24:01.878Z,56.18
2019-03-01T04:26:37.715Z,58.00
2019-03-01T04:29:13.577Z,60.20
2019-03-01T04:31:50.149Z,61.33
2019-03-01T04:34:25.993Z,57.62
2019-03-01T04:37:01.766Z,55.80
2019-03-01T04:39:37.598Z,58.33
2019-03-01T04:42:13.462Z,59.83
2019-03-01T04:44:49.299Z,58.60
2019-03-01T04:47:25.051Z,55.83
2019-03-01T04:50:00.908Z,56.80
2019-03-01T04:52:36.976Z,57.95
2019-03-01T04:55:18.665Z,57.53
2019-03-01T04:57:54.417Z,58.30
2019-03-01T05:00:30.214Z,58.65
2019-03-01T05:03:06.014Z,57.78
2019-03-01T05:05:41.883Z,59.42
2019-03-01T05:08:18.241Z,58.50
2019-03-01T05:10:54.097Z,60.52
2019-03-01T05:13:29.976Z,57.80
2019-03-01T05:16:06.005Z,58.20
2019-03-01T05:18:41.857Z,58.30
2019-03-01T05:21:17.713Z,57.70
2019-03-01T05:23:53.570Z,60.15
2019-03-01T05:26:29.411Z,58.68
2019-03-01T05:29:05.279Z,58.30
2019-03-01T05:31:41.131Z,58.17
2019-03-01T05:34:16.995Z,60.15
2019-03-01T05:36:53.953Z,60.17
2019-03-01T05:39:29.713Z,57.83
2019-03-01T05:42:05.565Z,59.33
2019-03-01T05:44:41.422Z,60.28
2019-03-01T05:47:17.486Z,60.20
2019-03-01T05:49:53.341Z,58.90
2019-03-01T05:52:30.376Z,57.50
2019-03-01T05:55:08.447Z,58.05
2019-03-01T05:58:21.556Z,59.88
2019-03-01T06:01:03.137Z,62.75
2019-03-01T06:03:44.978Z,66.47
2019-03-01T06:06:41.916Z,63.65
2019-03-01T06:09:32.379Z,62.40
2019-03-01T06:12:36.751Z,61.35
2019-03-01T06:15:33.326Z,60.92
2019-03-01T06:18:29.920Z,61.18
2019-03-01T06:21:08.805Z,61.37
2019-03-01T06:23:56.550Z,60.23
2019-03-01T06:26:50.564Z,60.88
2019-03-01T06:29:29.329Z,60.33
2019-03-01T06:32:24.702Z,61.55
2019-03-01T06:35:18.446Z,63.45
2019-03-01T06:38:16.152Z,65.55
2019-03-01T06:40:56.589Z,63.28
2019-03-01T06:43:38.139Z,66.47
2019-03-01T06:46:22.944Z,63.92
2019-03-01T06:49:02.987Z,65.37
2019-03-01T06:51:38.776Z,64.62
2019-03-01T06:54:14.520Z,60.70
2019-03-01T06:56:50.277Z,62.80
2019-03-01T06:59:26.065Z,60.00
2019-03-01T07:02:02.935Z,64.70
2019-03-01T07:04:38.729Z,62.10
2019-03-01T07:07:14.662Z,63.08
2019-03-01T07:09:50.430Z,60.35
2019-03-01T07:12:26.163Z,58.58
2019-03-01T07:15:01.971Z,59.27
2019-03-01T07:17:39.545Z,59.33
2019-03-01T07:20:15.344Z,60.90
2019-03-01T07:22:51.149Z,63.42
2019-03-01T07:25:26.921Z,64.60
2019-03-01T07:28:02.772Z,66.60
2019-03-01T07:30:38.574Z,63.42
2019-03-01T07:33:14.385Z,67.47
2019-03-01T07:35:50.258Z,65.85
2019-03-01T07:38:25.985Z,63.65
2019-03-01T07:41:01.783Z,67.22
2019-03-01T07:43:37.582Z,69.70
2019-03-01T07:46:13.417Z,70.50
2019-03-01T07:48:49.177Z,69.67
2019-03-01T07:51:26.944Z,72.22
2019-03-01T07:54:02.465Z,70.32
2019-03-01T07:56:39.886Z,68.67
2019-03-01T07:59:15.714Z,67.78
2019-03-01T08:01:51.483Z,67.15
2019-03-01T08:04:28.805Z,66.80
2019-03-01T08:07:05.343Z,70.15
2019-03-01T08:09:44.505Z,67.15
2019-03-01T08:12:18.786Z,62.05
2019-03-01T08:14:54.631Z,65.00
2019-03-01T08:17:31.604Z,66.15
2019-03-01T08:20:13.212Z,66.53
2019-03-01T08:22:49.765Z,62.88
2019-03-01T08:25:25.619Z,64.27
2019-03-01T08:28:01.428Z,72.50
2019-03-01T08:30:37.311Z,65.72
2019-03-01T08:33:13.166Z,64.47
2019-03-01T08:35:48.957Z,66.92
2019-03-01T08:38:25.432Z,66.05
2019-03-01T08:41:02.153Z,65.87
2019-03-01T08:43:37.892Z,65.05
2019-03-01T08:46:13.660Z,66.28
2019-03-01T08:48:49.454Z,63.80
2019-03-01T08:51:26.447Z,64.35
2019-03-01T08:54:02.680Z,62.55
2019-03-01T08:56:38.485Z,62.65
2019-03-01T08:59:17.591Z,65.15
2019-03-01T09:01:51.700Z,78.52
2019-03-01T09:04:27.470Z,76.92
2019-03-01T09:07:03.292Z,63.98
2019-03-01T09:09:39.246Z,63.90
2019-03-01T09:12:15.010Z,68.70
2019-03-01T09:14:50.782Z,61.90
2019-03-01T09:17:26.551Z,59.53
2019-03-01T09:20:02.474Z,58.85
2019-03-01T09:22:38.302Z,59.33
2019-03-01T09:25:15.703Z,61.13
2019-03-01T09:27:51.560Z,60.88
2019-03-01T09:30:27.411Z,62.33
2019-03-01T09:33:03.359Z,62.20
2019-03-01T09:35:43.993Z,62.00
2019-03-01T09:38:19.819Z,61.65
2019-03-01T09:40:57.416Z,58.98
2019-03-01T09:43:33.019Z,60.20
2019-03-01T09:46:08.784Z,58.35
2019-03-01T09:48:45.675Z,59.40
2019-03-01T09:51:22.399Z,57.88
2019-03-01T09:53:58.172Z,66.22
2019-03-01T09:56:33.940Z,76.30
2019-03-01T09:59:09.738Z,68.55
2019-03-01T10:01:46.478Z,72.17
2019-03-01T10:04:22.277Z,66.20
2019-03-01T10:06:58.044Z,62.78
2019-03-01T10:09:34.217Z,64.90
2019-03-01T10:12:09.977Z,68.67
2019-03-01T10:14:45.837Z,65.60
2019-03-01T10:17:57.126Z,67.15
2019-03-01T10:20:36.358Z,67.47
2019-03-01T10:23:12.205Z,66.67
2019-03-01T10:25:48.065Z,70.55
2019-03-01T10:28:24.210Z,68.80
2019-03-01T10:31:00.236Z,69.00
2019-03-01T10:33:36.139Z,69.32
2019-03-01T10:36:12.002Z,74.50
2019-03-01T10:38:47.952Z,79.05
2019-03-01T10:41:23.803Z,77.42
2019-03-01T10:43:59.642Z,78.10
2019-03-01T10:46:35.511Z,76.75
2019-03-01T10:49:11.368Z,82.08
2019-03-01T10:51:47.219Z,83.62
2019-03-01T10:54:23.073Z,88.58
2019-03-01T10:56:58.924Z,85.92
2019-03-01T10:59:34.778Z,83.30
2019-03-01T11:02:11.188Z,83.72
2019-03-01T11:04:46.987Z,86.20
2019-03-01T11:07:22.854Z,83.20
2019-03-01T11:09:59.026Z,82.25
2019-03-01T11:12:35.280Z,76.10
2019-03-01T11:15:12.566Z,75.32
2019-03-01T11:17:48.421Z,77.25
2019-03-01T11:20:24.375Z,72.17
2019-03-01T11:23:00.284Z,71.02
2019-03-01T11:25:36.181Z,72.08
2019-03-01T11:28:12.041Z,74.72
2019-03-01T11:30:47.898Z,75.87
2019-03-01T11:33:24.265Z,71.07
2019-03-01T11:36:00.109Z,80.22
2019-03-01T11:38:35.927Z,75.00
2019-03-01T11:41:11.821Z,78.95
2019-03-01T11:43:48.701Z,74.97
2019-03-01T11:46:24.662Z,73.95
2019-03-01T11:49:00.497Z,74.97
2019-03-01T11:51:36.363Z,74.25
2019-03-01T11:54:13.651Z,78.42
2019-03-01T11:56:50.011Z,77.00
2019-03-01T11:59:25.860Z,73.05
2019-03-01T12:02:03.058Z,68.50
2019-03-01T12:04:39.238Z,74.12
2019-03-01T12:07:15.059Z,73.52
2019-03-01T12:09:51.445Z,75.50
2019-03-01T12:12:27.296Z,123.35
2019-03-01T12:15:03.145Z,121.02
2019-03-01T12:17:39.518Z,102.30
2019-03-01T12:20:21.020Z,85.37
2019-03-01T12:22:56.846Z,76.62
2019-03-01T12:25:32.706Z,76.50
2019-03-01T12:28:08.560Z,77.37
2019-03-01T12:30:44.407Z,80.77
2019-03-01T12:33:20.304Z,87.55
2019-03-01T12:35:56.416Z,82.92
2019-03-01T12:38:32.376Z,106.07
2019-03-01T12:41:08.244Z,121.30
2019-03-01T12:43:44.104Z,91.28
2019-03-01T12:46:19.883Z,74.80
2019-03-01T12:48:55.653Z,70.22
2019-03-01T12:51:31.503Z,74.15
2019-03-01T12:54:07.346Z,71.85
2019-03-01T12:56:43.303Z,68.52
2019-03-01T12:59:19.175Z,73.35
2019-03-01T13:01:54.969Z,69.45
2019-03-01T13:04:30.731Z,67.50
2019-03-01T13:07:06.496Z,67.08
2019-03-01T13:09:42.290Z,67.17
2019-03-01T13:12:19.050Z,68.80
2019-03-01T13:14:54.863Z,69.35
2019-03-01T13:17:33.730Z,71.72
2019-03-01T13:20:13.207Z,69.25
2019-03-01T13:22:49.127Z,68.87
2019-03-01T13:25:25.923Z,72.35
2019-03-01T13:28:02.470Z,71.70
2019-03-01T13:30:38.251Z,70.75
2019-03-01T13:33:19.718Z,71.28
2019-03-01T13:36:03.653Z,69.87
2019-03-01T13:38:37.953Z,67.78
2019-03-01T13:41:13.694Z,69.20
2019-03-01T13:43:49.530Z,67.25
2019-03-01T13:46:26.362Z,63.68
2019-03-01T13:49:02.876Z,65.30
2019-03-01T13:51:38.638Z,63.60
2019-03-01T13:54:14.404Z,74.50
2019-03-01T13:56:50.852Z,63.63
2019-03-01T13:59:27.175Z,59.42
2019-03-01T14:02:04.365Z,64.10
2019-03-01T14:04:41.360Z,62.98
2019-03-01T14:07:17.296Z,85.65
2019-03-01T14:09:53.155Z,79.70
2019-03-01T14:12:28.870Z,62.23
2019-03-01T14:15:07.444Z,70.17
2019-03-01T14:17:43.178Z,77.00
2019-03-01T14:20:21.249Z,64.90
2019-03-01T14:22:57.054Z,86.05
2019-03-01T14:25:32.847Z,63.20
2019-03-01T14:28:08.633Z,69.42
2019-03-01T14:30:44.447Z,59.10
2019-03-01T14:33:20.167Z,65.87
2019-03-01T14:35:55.980Z,67.78
2019-03-01T14:38:31.707Z,65.37
2019-03-01T14:41:07.978Z,65.90
2019-03-01T14:43:43.715Z,66.40
2019-03-01T14:46:20.839Z,63.70
2019-03-01T14:48:57.127Z,57.53
2019-03-01T14:51:32.992Z,53.90
2019-03-01T14:54:09.886Z,54.83
2019-03-01T14:56:47.254Z,56.53
2019-03-01T14:59:26.192Z,56.33
2019-03-01T15:02:20.179Z,52.88
2019-03-01T15:04:56.019Z,53.73
2019-03-01T15:07:31.870Z,55.20
2019-03-01T15:10:11.611Z,55.25
2019-03-01T15:12:47.459Z,53.25
2019-03-01T15:15:26.398Z,54.75
2019-03-01T15:18:00.921Z,57.45
2019-03-01T15:20:37.278Z,54.75
2019-03-01T15:23:15.053Z,58.08
2019-03-01T15:25:50.617Z,56.58
2019-03-01T15:28:26.468Z,59.65
2019-03-01T15:31:02.341Z,61.10
2019-03-01T15:33:38.189Z,65.83
2019-03-01T15:36:18.076Z,60.15
2019-03-01T15:38:51.529Z,59.42
2019-03-01T15:41:28.207Z,62.62
2019-03-01T15:44:04.157Z,61.20
2019-03-01T15:46:40.010Z,67.70
2019-03-01T15:49:16.252Z,63.15
2019-03-01T15:51:52.141Z,61.80
2019-03-01T15:54:28.191Z,57.27
2019-03-01T15:57:04.269Z,61.63
2019-03-01T15:59:44.405Z,57.53
2019-03-01T16:02:19.100Z,57.88
2019-03-01T16:04:54.889Z,57.38
2019-03-01T16:07:32.345Z,58.38
2019-03-01T16:10:18.718Z,59.53
2019-03-01T16:12:54.514Z,64.17
2019-03-01T16:15:30.335Z,81.08
2019-03-01T16:18:06.141Z,62.60
2019-03-01T16:20:41.928Z,61.80
2019-03-01T16:23:17.684Z,60.88
2019-03-01T16:25:56.334Z,62.58
2019-03-01T16:28:32.279Z,59.45
2019-03-01T16:31:08.394Z,59.60
2019-03-01T16:33:44.156Z,63.00
2019-03-01T16:36:23.374Z,61.55
2019-03-01T16:38:59.130Z,63.20
2019-03-01T16:41:35.347Z,62.20
2019-03-01T16:44:11.263Z,63.45
2019-03-01T16:46:47.029Z,67.20
2019-03-01T16:49:23.614Z,71.65
2019-03-01T16:52:00.294Z,70.03
2019-03-01T16:54:36.628Z,76.55
2019-03-01T16:57:15.043Z,73.45
2019-03-01T16:59:49.897Z,75.50
2019-03-01T17:02:25.672Z,81.55
2019-03-01T17:05:03.887Z,77.27
2019-03-01T17:07:39.350Z,88.25
2019-03-01T17:10:18.845Z,73.40
2019-03-01T17:12:54.557Z,74.85
2019-03-01T17:15:30.323Z,73.60
2019-03-01T17:18:11.132Z,73.70
2019-03-01T17:20:44.574Z,74.70
2019-03-01T17:23:20.362Z,71.17
2019-03-01T17:25:56.163Z,68.83
2019-03-01T17:28:32.046Z,67.10
2019-03-01T17:31:07.838Z,67.97
2019-03-01T17:33:45.102Z,66.33
2019-03-01T17:36:21.881Z,70.03
2019-03-01T17:38:57.658Z,70.05
2019-03-01T17:41:33.442Z,67.67
2019-03-01T17:44:09.632Z,68.57
2019-03-01T17:46:45.411Z,67.35
2019-03-01T17:49:21.250Z,66.35
2019-03-01T17:51:57.712Z,67.42
2019-03-01T17:54:33.596Z,66.87
2019-03-01T17:57:09.603Z,80.17
2019-03-01T17:59:48.244Z,64.62
2019-03-01T18:02:22.867Z,66.72
2019-03-01T18:04:58.620Z,65.22
2019-03-01T18:07:34.419Z,65.60
2019-03-01T18:10:12.224Z,64.83
2019-03-01T18:12:48.028Z,66.90
2019-03-01T18:15:23.732Z,69.22
2019-03-01T18:17:59.495Z,73.00
2019-03-01T18:20:37.765Z,73.22
2019-03-01T18:23:12.820Z,71.40
2019-03-01T18:25:48.849Z,69.40
2019-03-01T18:28:28.317Z,74.82
2019-03-01T18:31:02.974Z,67.10
2019-03-01T18:33:38.801Z,69.40
2019-03-01T18:36:14.518Z,65.92
2019-03-01T18:38:50.386Z,64.95
2019-03-01T18:41:27.392Z,66.33
2019-03-01T18:44:03.546Z,73.55
2019-03-01T18:46:39.547Z,69.30
2019-03-01T18:49:16.692Z,73.52
2019-03-01T18:51:53.213Z,74.82
2019-03-01T18:54:29.037Z,71.28
2019-03-01T18:57:04.885Z,68.07
2019-03-01T18:59:40.787Z,70.12
2019-03-01T19:02:16.680Z,69.30
2019-03-01T19:04:54.066Z,64.58
2019-03-01T19:07:29.931Z,64.77
2019-03-01T19:10:08.962Z,64.70
2019-03-01T19:12:48.626Z,63.87
2019-03-01T19:15:22.720Z,66.10
2019-03-01T19:17:58.568Z,66.35
2019-03-01T19:20:49.064Z,69.27
2019-03-01T19:23:25.794Z,71.05
2019-03-01T19:26:02.004Z,69.30
2019-03-01T19:28:37.711Z,73.50
2019-03-01T19:31:13.499Z,75.67
2019-03-01T19:33:49.362Z,74.67
2019-03-01T19:36:25.315Z,74.22
2019-03-01T19:39:01.555Z,94.80
2019-03-01T19:41:39.072Z,85.62
2019-03-01T19:44:15.030Z,87.30
2019-03-01T19:46:51.390Z,89.87
2019-03-01T19:49:28.314Z,78.80
2019-03-01T19:52:04.114Z,79.03
2019-03-01T19:54:40.172Z,71.97
2019-03-01T19:57:16.244Z,75.72
2019-03-01T19:59:51.981Z,80.90
2019-03-01T20:02:30.875Z,83.87
2019-03-01T20:05:08.925Z,83.05
2019-03-01T20:07:44.768Z,79.30
2019-03-01T20:10:20.635Z,82.87
2019-03-01T20:12:56.473Z,96.90
2019-03-01T20:15:32.656Z,90.42
2019-03-01T20:18:09.892Z,76.07
2019-03-01T20:20:46.092Z,72.03
2019-03-01T20:23:21.954Z,75.62
2019-03-01T20:25:57.800Z,72.47
2019-03-01T20:28:33.652Z,72.05
2019-03-01T20:31:09.501Z,73.87
2019-03-01T20:33:45.362Z,78.35
2019-03-01T20:36:21.212Z,69.25
2019-03-01T20:38:59.443Z,70.15
2019-03-01T20:41:35.946Z,68.25
2019-03-01T20:44:14.653Z,66.67
2019-03-01T20:46:50.468Z,70.05
2019-03-01T20:49:26.314Z,68.40
2019-03-01T20:52:03.313Z,67.50
2019-03-01T20:54:39.252Z,69.20
2019-03-01T20:57:15.008Z,74.50
2019-03-01T20:59:51.593Z,69.45
2019-03-01T21:02:27.546Z,70.12
2019-03-01T21:05:03.394Z,69.45
2019-03-01T21:07:39.653Z,70.65
2019-03-01T21:10:20.692Z,74.15
2019-03-01T21:12:56.589Z,70.70
2019-03-01T21:15:34.619Z,71.10
2019-03-01T21:18:10.027Z,70.60
2019-03-01T21:20:45.903Z,67.70
2019-03-01T21:23:21.845Z,67.65
2019-03-01T21:25:57.587Z,68.02
2019-03-01T21:28:33.762Z,65.42
2019-03-01T21:31:11.044Z,65.67
2019-03-01T21:33:46.907Z,67.30
2019-03-01T21:36:25.946Z,65.28
2019-03-01T21:39:01.369Z,64.15
2019-03-01T21:41:41.494Z,66.02
2019-03-01T21:44:16.261Z,65.87
2019-03-01T21:46:51.999Z,65.67
2019-03-01T21:49:27.806Z,63.30
2019-03-01T21:52:03.603Z,63.10
2019-03-01T21:54:39.472Z,60.30
2019-03-01T21:57:15.210Z,60.93
2019-03-01T21:59:52.512Z,60.58
2019-03-01T22:02:28.453Z,60.75
2019-03-01T22:05:13.628Z,61.68
2019-03-01T22:07:51.642Z,64.82
2019-03-01T22:10:27.484Z,65.70
2019-03-01T22:13:03.353Z,67.87
2019-03-01T22:15:39.336Z,71.25
2019-03-01T22:18:15.160Z,72.03
2019-03-01T22:20:50.921Z,69.95
2019-03-01T22:23:26.650Z,71.25
2019-03-01T22:26:02.504Z,69.45
2019-03-01T22:28:38.216Z,68.92
2019-03-01T22:31:14.020Z,68.97
2019-03-01T22:33:52.562Z,69.58
2019-03-01T22:36:27.251Z,69.58
2019-03-01T22:39:03.115Z,71.00
2019-03-01T22:41:40.614Z,69.45
2019-03-01T22:44:16.460Z,71.37
2019-03-01T22:46:52.310Z,70.08
2019-03-01T22:49:31.744Z,72.08
2019-03-01T22:52:07.309Z,65.90
2019-03-01T22:54:43.144Z,64.70
2019-03-01T22:57:22.463Z,67.87
2019-03-01T22:59:56.700Z,69.25
2019-03-01T23:02:33.239Z,69.40
2019-03-01T23:05:09.848Z,66.57
2019-03-01T23:07:45.706Z,67.05
2019-03-01T23:10:22.330Z,65.50
2019-03-01T23:12:58.332Z,66.70
2019-03-01T23:15:34.190Z,67.25
2019-03-01T23:18:10.038Z,68.95
2019-03-01T23:20:45.884Z,66.53
2019-03-01T23:23:24.008Z,68.12
2019-03-01T23:25:59.341Z,66.20
2019-03-01T23:28:35.505Z,65.52
2019-03-01T23:31:11.681Z,68.28
2019-03-01T23:33:47.516Z,70.05
2019-03-01T23:36:24.864Z,77.37
2019-03-01T23:39:01.073Z,86.05
2019-03-01T23:41:38.448Z,78.40
2019-03-01T23:44:15.434Z,73.28
2019-03-01T23:46:51.300Z,73.62
2019-03-01T23:49:27.151Z,79.35
2019-03-01T23:52:03.001Z,75.45
2019-03-01T23:54:40.628Z,83.22
2019-03-01T23:57:16.354Z,81.78
2019-03-01T23:59:52.210Z,78.75
